createdAt,value
2018-03-21T00:01:45.080Z,5.24
2018-03-21T00:04:13.796Z,5.16
2018-03-21T00:06:42.465Z,5.09
2018-03-21T00:09:11.819Z,4.98
2018-03-21T00:11:40.391Z,4.90
2018-03-21T00:14:11.322Z,4.91
2018-03-21T00:16:40.283Z,4.79
2018-03-21T00:19:08.881Z,4.73
2018-03-21T00:21:37.560Z,4.68
2018-03-21T00:24:07.041Z,4.55
2018-03-21T00:26:35.776Z,4.47
2018-03-21T00:29:04.450Z,4.45
2018-03-21T00:31:33.106Z,4.33
2018-03-21T00:34:03.297Z,4.29
2018-03-21T00:36:31.903Z,4.24
2018-03-21T00:39:00.651Z,4.21
2018-03-21T00:41:29.267Z,4.24
2018-03-21T00:44:00.158Z,4.23
2018-03-21T00:46:29.310Z,4.18
2018-03-21T00:48:57.820Z,4.23
2018-03-21T00:51:26.475Z,4.26
2018-03-21T00:53:55.086Z,4.29
2018-03-21T00:56:23.806Z,4.26
2018-03-21T00:58:52.609Z,4.25
2018-03-21T01:01:21.183Z,4.22
2018-03-21T01:03:50.536Z,4.28
2018-03-21T01:06:19.147Z,4.34
2018-03-21T01:08:47.854Z,4.40
2018-03-21T01:11:17.505Z,4.37
2018-03-21T01:13:46.494Z,4.45
2018-03-21T01:16:15.679Z,4.58
2018-03-21T01:18:45.229Z,4.62
2018-03-21T01:21:13.911Z,4.68
2018-03-21T01:23:43.309Z,4.66
2018-03-21T01:26:11.926Z,4.67
2018-03-21T01:28:40.498Z,4.75
2018-03-21T01:31:09.208Z,4.75
2018-03-21T01:33:37.891Z,4.80
2018-03-21T01:36:06.632Z,4.80
2018-03-21T01:38:35.214Z,4.79
2018-03-21T01:41:03.877Z,4.80
2018-03-21T01:43:33.305Z,4.80
2018-03-21T01:46:03.159Z,4.79
2018-03-21T01:48:32.015Z,4.72
2018-03-21T01:51:00.635Z,4.75
2018-03-21T01:53:29.194Z,4.72
2018-03-21T01:55:57.757Z,4.75
2018-03-21T01:58:26.344Z,4.82
2018-03-21T02:00:54.896Z,4.86
2018-03-21T02:03:23.606Z,4.88
2018-03-21T02:05:52.325Z,4.88
2018-03-21T02:08:20.909Z,4.85
2018-03-21T02:10:49.617Z,4.85
2018-03-21T02:13:18.146Z,4.83
2018-03-21T02:15:46.889Z,4.86
2018-03-21T02:18:15.691Z,4.87
2018-03-21T02:20:44.816Z,4.81
2018-03-21T02:23:14.187Z,4.85
2018-03-21T02:25:42.852Z,4.78
2018-03-21T02:28:11.472Z,4.76
2018-03-21T02:30:40.866Z,4.80
2018-03-21T02:33:09.488Z,4.77
2018-03-21T02:35:38.100Z,4.80
2018-03-21T02:38:07.428Z,4.75
2018-03-21T02:40:36.915Z,4.73
2018-03-21T02:43:05.609Z,4.71
2018-03-21T02:45:34.269Z,4.73
2018-03-21T02:48:03.853Z,4.63
2018-03-21T02:50:32.710Z,4.64
2018-03-21T02:53:02.717Z,4.59
2018-03-21T02:55:31.348Z,4.57
2018-03-21T02:58:00.049Z,4.59
2018-03-21T03:00:29.446Z,4.56
2018-03-21T03:02:58.067Z,4.52
2018-03-21T03:05:26.655Z,4.53
2018-03-21T03:07:55.237Z,4.46
2018-03-21T03:10:23.931Z,4.44
2018-03-21T03:12:52.496Z,4.45
2018-03-21T03:15:21.056Z,4.39
2018-03-21T03:17:49.816Z,4.39
2018-03-21T03:20:18.878Z,4.39
2018-03-21T03:22:48.297Z,4.29
2018-03-21T03:25:17.151Z,4.22
2018-03-21T03:27:45.798Z,4.25
2018-03-21T03:30:14.534Z,4.28
2018-03-21T03:32:43.173Z,4.23
2018-03-21T03:35:11.843Z,4.23
2018-03-21T03:37:40.415Z,4.10
2018-03-21T03:40:09.103Z,4.08
2018-03-21T03:42:38.564Z,4.09
2018-03-21T03:45:07.205Z,4.10
2018-03-21T03:47:35.829Z,4.06
2018-03-21T03:50:04.499Z,3.95
2018-03-21T03:52:33.125Z,4.02
2018-03-21T03:55:01.989Z,3.99
2018-03-21T03:57:32.195Z,3.95
2018-03-21T04:00:00.846Z,3.87
2018-03-21T04:02:29.429Z,3.87
2018-03-21T04:04:58.177Z,3.75
2018-03-21T04:07:26.785Z,3.77
2018-03-21T04:09:55.481Z,3.65
2018-03-21T04:12:24.053Z,3.71
2018-03-21T04:14:52.681Z,3.68
2018-03-21T04:17:21.203Z,3.62
2018-03-21T04:19:49.940Z,3.55
2018-03-21T04:22:18.570Z,3.47
2018-03-21T04:24:47.981Z,3.44
2018-03-21T04:27:16.976Z,3.36
2018-03-21T04:29:46.192Z,3.38
2018-03-21T04:32:15.100Z,3.33
2018-03-21T04:34:43.839Z,3.24
2018-03-21T04:37:12.492Z,3.35
2018-03-21T04:39:41.105Z,3.29
2018-03-21T04:42:10.128Z,3.27
2018-03-21T04:44:38.908Z,3.33
2018-03-21T04:47:16.652Z,3.16
2018-03-21T04:49:45.266Z,3.12
2018-03-21T04:52:14.431Z,3.04
2018-03-21T04:54:43.494Z,2.95
2018-03-21T04:57:12.591Z,2.81
2018-03-21T04:59:41.289Z,2.83
2018-03-21T05:02:09.856Z,2.84
2018-03-21T05:04:38.518Z,2.90
2018-03-21T05:07:07.090Z,2.89
2018-03-21T05:09:35.719Z,2.80
2018-03-21T05:12:04.339Z,2.78
2018-03-21T05:14:32.990Z,2.80
2018-03-21T05:17:02.453Z,2.92
2018-03-21T05:19:31.177Z,2.83
2018-03-21T05:21:59.810Z,2.78
2018-03-21T05:24:28.706Z,2.81
2018-03-21T05:26:57.809Z,2.75
2018-03-21T05:29:27.587Z,2.85
2018-03-21T05:31:56.979Z,2.77
2018-03-21T05:34:25.593Z,2.87
2018-03-21T05:36:54.428Z,2.83
2018-03-21T05:39:23.010Z,2.81
2018-03-21T05:41:51.682Z,2.80
2018-03-21T05:44:20.304Z,2.83
2018-03-21T05:46:48.926Z,2.88
2018-03-21T05:49:17.593Z,2.97
2018-03-21T05:51:47.120Z,2.93
2018-03-21T05:54:15.739Z,3.08
2018-03-21T05:56:44.663Z,3.05
2018-03-21T05:59:14.688Z,3.06
2018-03-21T06:01:43.587Z,3.08
2018-03-21T06:04:12.228Z,3.04
2018-03-21T06:06:40.809Z,3.09
2018-03-21T06:09:09.449Z,3.02
2018-03-21T06:11:40.386Z,3.16
2018-03-21T06:14:08.960Z,3.24
2018-03-21T06:16:37.600Z,3.35
2018-03-21T06:19:06.392Z,3.49
2018-03-21T06:21:35.970Z,3.77
2018-03-21T06:24:04.691Z,4.05
2018-03-21T06:26:33.324Z,4.16
2018-03-21T06:29:02.971Z,4.12
2018-03-21T06:31:31.881Z,3.98
2018-03-21T06:34:00.579Z,3.94
2018-03-21T06:36:29.260Z,3.91
2018-03-21T06:38:57.954Z,3.86
2018-03-21T06:41:27.319Z,3.85
2018-03-21T06:43:56.015Z,3.88
2018-03-21T06:46:24.549Z,4.29
2018-03-21T06:48:53.133Z,4.68
2018-03-21T06:51:21.824Z,4.68
2018-03-21T06:53:50.401Z,4.80
2018-03-21T06:56:20.003Z,4.87
2018-03-21T06:58:48.698Z,4.66
2018-03-21T07:01:17.998Z,4.66
2018-03-21T07:03:47.182Z,4.87
2018-03-21T07:06:16.573Z,5.35
2018-03-21T07:08:45.322Z,5.58
2018-03-21T07:11:14.874Z,5.49
2018-03-21T07:14:01.414Z,5.63
2018-03-21T07:16:44.135Z,5.62
2018-03-21T07:19:13.042Z,5.25
2018-03-21T07:21:41.913Z,5.05
2018-03-21T07:24:10.528Z,4.99
2018-03-21T07:26:39.114Z,4.93
2018-03-21T07:29:07.734Z,4.86
2018-03-21T07:31:36.527Z,4.95
2018-03-21T07:34:05.266Z,4.99
2018-03-21T07:36:34.668Z,5.19
2018-03-21T07:39:04.383Z,5.23
2018-03-21T07:41:33.302Z,5.29
2018-03-21T07:44:02.053Z,5.27
2018-03-21T07:46:31.348Z,5.29
2018-03-21T07:49:00.130Z,5.54
2018-03-21T07:51:28.881Z,5.70
2018-03-21T07:53:57.589Z,5.67
2018-03-21T07:56:26.300Z,5.77
2018-03-21T07:58:54.901Z,5.78
2018-03-21T08:01:23.708Z,5.75
2018-03-21T08:03:52.416Z,5.85
2018-03-21T08:06:21.061Z,5.68
2018-03-21T08:08:49.848Z,5.86
2018-03-21T08:11:19.236Z,5.92
2018-03-21T08:13:48.642Z,5.74
2018-03-21T08:16:17.215Z,5.69
2018-03-21T08:18:45.742Z,5.81
2018-03-21T08:21:15.167Z,5.84
2018-03-21T08:23:44.723Z,5.90
2018-03-21T08:26:13.374Z,5.93
2018-03-21T08:28:42.041Z,5.89
2018-03-21T08:31:10.645Z,5.91
2018-03-21T08:33:39.382Z,5.96
2018-03-21T08:36:08.093Z,5.92
2018-03-21T08:38:36.792Z,6.05
2018-03-21T08:41:05.517Z,5.90
2018-03-21T08:43:34.806Z,5.99
2018-03-21T08:46:04.089Z,6.05
2018-03-21T08:48:32.864Z,6.05
2018-03-21T08:51:01.548Z,6.25
2018-03-21T08:53:30.055Z,6.28
2018-03-21T08:55:58.658Z,6.31
2018-03-21T08:58:27.235Z,6.50
2018-03-21T09:00:55.940Z,6.44
2018-03-21T09:03:24.637Z,6.49
2018-03-21T09:05:53.328Z,6.49
2018-03-21T09:08:22.783Z,6.75
2018-03-21T09:10:51.548Z,7.91
2018-03-21T09:13:21.007Z,8.37
2018-03-21T09:19:25.770Z,7.79
2018-03-21T09:21:55.809Z,7.24
2018-03-21T09:24:25.211Z,6.71
2018-03-21T09:26:53.813Z,6.51
2018-03-21T09:29:22.367Z,6.34
2018-03-21T09:31:51.813Z,6.07
2018-03-21T09:34:20.453Z,5.91
2018-03-21T09:36:49.781Z,5.85
2018-03-21T09:39:18.363Z,5.87
2018-03-21T09:41:46.909Z,5.85
2018-03-21T09:44:15.620Z,5.97
2018-03-21T09:46:44.240Z,6.02
2018-03-21T09:49:12.962Z,6.21
2018-03-21T09:51:41.636Z,6.43
2018-03-21T09:54:10.940Z,6.50
2018-03-21T09:56:40.273Z,6.49
2018-03-21T09:59:09.189Z,6.54
2018-03-21T10:01:38.644Z,6.43
2018-03-21T10:04:08.165Z,6.39
2018-03-21T10:06:37.587Z,6.50
2018-03-21T10:09:07.152Z,6.26
2018-03-21T10:11:35.847Z,6.07
2018-03-21T10:14:04.572Z,5.90
2018-03-21T10:16:33.409Z,5.84
2018-03-21T10:19:02.820Z,5.91
2018-03-21T10:21:31.697Z,5.95
2018-03-21T10:24:00.569Z,6.05
2018-03-21T10:26:29.579Z,6.12
2018-03-21T10:28:58.530Z,5.90
2018-03-21T10:31:27.169Z,5.97
2018-03-21T10:33:55.730Z,6.09
2018-03-21T10:36:25.194Z,6.17
2018-03-21T10:38:54.217Z,6.09
2018-03-21T10:41:22.937Z,5.95
2018-03-21T10:43:51.578Z,6.00
2018-03-21T10:46:20.920Z,6.22
2018-03-21T10:48:49.566Z,6.28
2018-03-21T10:51:18.229Z,6.19
2018-03-21T10:53:46.959Z,5.85
2018-03-21T10:56:15.752Z,5.86
2018-03-21T10:58:45.483Z,5.82
2018-03-21T11:01:20.008Z,5.80
2018-03-21T11:03:56.960Z,5.77
2018-03-21T11:06:25.686Z,5.77
2018-03-21T11:08:54.375Z,5.74
2018-03-21T11:11:23.069Z,5.75
2018-03-21T11:13:51.695Z,5.87
2018-03-21T11:16:20.640Z,5.90
2018-03-21T11:18:50.778Z,5.73
2018-03-21T11:21:20.502Z,5.74
2018-03-21T11:23:49.970Z,5.81
2018-03-21T11:26:18.488Z,6.01
2018-03-21T11:28:47.385Z,6.19
2018-03-21T11:31:15.980Z,6.45
2018-03-21T11:33:44.675Z,6.53
2018-03-21T11:36:13.312Z,6.62
2018-03-21T11:38:41.828Z,6.50
2018-03-21T11:41:10.530Z,6.71
2018-03-21T11:43:39.479Z,6.67
2018-03-21T11:46:08.906Z,6.79
2018-03-21T11:48:38.531Z,6.92
2018-03-21T11:51:09.323Z,7.17
2018-03-21T11:53:38.192Z,7.07
2018-03-21T11:56:07.610Z,7.06
2018-03-21T11:58:36.198Z,7.28
2018-03-21T12:01:04.934Z,7.41
2018-03-21T12:03:34.547Z,7.20
2018-03-21T12:06:03.453Z,7.13
2018-03-21T12:08:32.140Z,7.22
2018-03-21T12:11:00.737Z,6.99
2018-03-21T12:13:29.418Z,6.93
2018-03-21T12:15:58.219Z,7.01
2018-03-21T12:18:26.785Z,7.23
2018-03-21T12:20:55.676Z,7.36
2018-03-21T12:23:24.986Z,7.28
2018-03-21T12:25:53.876Z,7.12
2018-03-21T12:28:22.623Z,7.09
2018-03-21T12:30:51.473Z,7.22
2018-03-21T12:33:20.762Z,7.27
2018-03-21T12:35:49.345Z,7.34
2018-03-21T12:38:17.986Z,7.19
2018-03-21T12:40:46.507Z,7.11
2018-03-21T12:43:15.948Z,7.08
2018-03-21T12:45:44.588Z,6.97
2018-03-21T12:48:13.321Z,7.08
2018-03-21T12:50:42.993Z,7.33
2018-03-21T12:53:12.970Z,7.55
2018-03-21T12:55:42.248Z,7.73
2018-03-21T12:58:11.184Z,7.88
2018-03-21T13:00:39.889Z,7.86
2018-03-21T13:03:09.255Z,7.84
2018-03-21T13:05:37.820Z,7.69
2018-03-21T13:08:06.350Z,7.58
2018-03-21T13:10:35.035Z,7.59
2018-03-21T13:13:03.758Z,7.66
2018-03-21T13:15:32.650Z,7.33
2018-03-21T13:18:02.087Z,7.44
2018-03-21T13:20:30.816Z,7.49
2018-03-21T13:22:59.629Z,7.58
2018-03-21T13:25:29.222Z,7.54
2018-03-21T13:27:59.667Z,7.43
2018-03-21T13:30:28.940Z,7.35
2018-03-21T13:32:58.452Z,7.54
2018-03-21T13:35:27.064Z,7.58
2018-03-21T13:37:55.706Z,7.62
2018-03-21T13:40:24.398Z,7.62
2018-03-21T13:42:53.898Z,7.34
2018-03-21T13:45:22.526Z,7.42
2018-03-21T13:47:51.991Z,7.43
2018-03-21T13:50:29.401Z,7.56
2018-03-21T13:52:58.718Z,7.76
2018-03-21T13:55:28.330Z,7.96
2018-03-21T13:57:57.907Z,8.30
2018-03-21T14:00:26.655Z,8.32
2018-03-21T14:02:55.297Z,8.35
2018-03-21T14:05:24.136Z,8.08
2018-03-21T14:07:52.877Z,7.62
2018-03-21T14:10:21.643Z,7.52
2018-03-21T14:12:50.359Z,7.58
2018-03-21T14:15:19.455Z,7.58
2018-03-21T14:17:49.016Z,7.61
2018-03-21T14:20:18.408Z,7.61
2018-03-21T14:22:47.761Z,7.62
2018-03-21T14:25:18.519Z,7.64
2018-03-21T14:27:47.196Z,7.64
2018-03-21T14:30:16.083Z,7.31
2018-03-21T14:32:44.867Z,7.25
2018-03-21T14:35:13.579Z,7.14
2018-03-21T14:37:42.154Z,7.09
2018-03-21T14:40:11.532Z,7.13
2018-03-21T14:42:40.215Z,7.21
2018-03-21T14:45:09.050Z,7.19
2018-03-21T14:47:37.829Z,7.38
2018-03-21T14:50:06.731Z,7.52
2018-03-21T14:52:35.492Z,7.67
2018-03-21T14:55:05.171Z,7.67
2018-03-21T14:57:34.350Z,7.65
2018-03-21T15:00:02.971Z,7.50
2018-03-21T15:02:32.611Z,7.54
2018-03-21T15:05:01.424Z,7.64
2018-03-21T15:07:30.122Z,7.39
2018-03-21T15:09:59.576Z,7.31
2018-03-21T15:12:28.192Z,7.44
2018-03-21T15:14:57.094Z,7.71
2018-03-21T15:17:25.778Z,7.62
2018-03-21T15:19:55.367Z,7.57
2018-03-21T15:22:24.070Z,7.47
2018-03-21T15:24:53.202Z,7.38
2018-03-21T15:27:23.423Z,7.45
2018-03-21T15:29:52.358Z,7.43
2018-03-21T15:32:21.077Z,7.32
2018-03-21T15:34:49.808Z,7.30
2018-03-21T15:37:19.286Z,7.23
2018-03-21T15:39:48.255Z,7.31
2018-03-21T15:42:17.693Z,7.18
2018-03-21T15:44:47.186Z,7.15
2018-03-21T15:47:16.654Z,7.19
2018-03-21T15:49:45.424Z,7.04
2018-03-21T15:52:14.982Z,6.90
2018-03-21T15:54:44.065Z,6.77
2018-03-21T15:57:13.086Z,6.61
2018-03-21T15:59:42.843Z,6.54
2018-03-21T16:02:11.873Z,6.40
2018-03-21T16:04:40.693Z,6.30
2018-03-21T16:07:09.384Z,6.23
2018-03-21T16:09:39.113Z,6.17
2018-03-21T16:12:08.403Z,6.13
2018-03-21T16:14:37.925Z,6.05
2018-03-21T16:17:07.887Z,5.94
2018-03-21T16:19:36.642Z,5.83
2018-03-21T16:22:05.361Z,5.84
2018-03-21T16:24:34.161Z,5.76
2018-03-21T16:27:04.668Z,5.73
2018-03-21T16:29:33.702Z,5.63
2018-03-21T16:32:03.312Z,5.47
2018-03-21T16:34:32.269Z,5.57
2018-03-21T16:37:01.069Z,5.55
2018-03-21T16:39:29.812Z,5.47
2018-03-21T16:41:59.242Z,5.33
2018-03-21T16:44:28.599Z,5.29
2018-03-21T16:46:57.409Z,5.21
2018-03-21T16:49:26.436Z,5.21
2018-03-21T16:51:56.190Z,5.12
2018-03-21T16:54:25.590Z,5.16
2018-03-21T16:56:55.194Z,5.14
2018-03-21T16:59:25.175Z,5.11
2018-03-21T17:01:54.991Z,5.01
2018-03-21T17:04:24.550Z,4.87
2018-03-21T17:06:53.180Z,4.70
2018-03-21T17:09:22.768Z,4.68
2018-03-21T17:11:51.603Z,4.66
2018-03-21T17:14:21.229Z,4.54
2018-03-21T17:16:50.838Z,4.55
2018-03-21T17:19:19.713Z,4.50
2018-03-21T17:21:48.583Z,4.39
2018-03-21T17:24:18.950Z,4.40
2018-03-21T17:26:48.639Z,4.43
2018-03-21T17:29:18.513Z,4.34
2018-03-21T17:31:47.571Z,4.36
2018-03-21T17:34:16.744Z,4.24
2018-03-21T17:36:45.595Z,4.21
2018-03-21T17:39:14.549Z,4.12
2018-03-21T17:41:44.339Z,4.06
2018-03-21T17:44:13.299Z,4.04
2018-03-21T17:46:43.253Z,4.04
2018-03-21T17:49:12.947Z,4.03
2018-03-21T17:51:42.711Z,3.99
2018-03-21T17:54:12.655Z,3.97
2018-03-21T17:56:41.900Z,3.93
2018-03-21T17:59:11.035Z,3.89
2018-03-21T18:01:40.087Z,3.90
2018-03-21T18:04:09.824Z,3.97
2018-03-21T18:06:39.488Z,3.98
2018-03-21T18:09:08.484Z,4.03
2018-03-21T18:11:37.456Z,4.03
2018-03-21T18:14:06.529Z,4.09
2018-03-21T18:16:35.601Z,4.10
2018-03-21T18:19:05.937Z,4.04
2018-03-21T18:21:36.768Z,4.03
2018-03-21T18:24:06.297Z,4.12
2018-03-21T18:26:36.352Z,4.15
2018-03-21T18:29:05.434Z,4.22
2018-03-21T18:31:34.543Z,4.25
2018-03-21T18:34:04.177Z,4.34
2018-03-21T18:36:34.408Z,4.40
2018-03-21T18:39:04.347Z,4.39
2018-03-21T18:41:33.676Z,4.46
2018-03-21T18:44:02.826Z,4.52
2018-03-21T18:46:33.632Z,4.53
2018-03-21T18:49:03.817Z,4.52
2018-03-21T18:51:32.825Z,4.55
2018-03-21T18:54:01.860Z,4.61
2018-03-21T18:56:31.680Z,4.57
2018-03-21T18:59:00.629Z,4.70
2018-03-21T19:01:29.806Z,4.73
2018-03-21T19:03:59.910Z,4.71
2018-03-21T19:06:29.068Z,4.77
2018-03-21T19:09:01.361Z,4.70
2018-03-21T19:11:31.740Z,4.76
2018-03-21T19:14:01.137Z,4.73
2018-03-21T19:16:31.327Z,4.83
2018-03-21T19:19:00.317Z,4.85
2018-03-21T19:21:30.413Z,4.84
2018-03-21T19:23:59.702Z,4.84
2018-03-21T19:26:28.784Z,4.80
2018-03-21T19:28:57.959Z,4.85
2018-03-21T19:31:26.894Z,4.80
2018-03-21T19:33:58.277Z,4.80
2018-03-21T19:36:27.750Z,4.73
2018-03-21T19:38:57.484Z,4.76
2018-03-21T19:41:26.751Z,4.81
2018-03-21T19:43:56.090Z,4.80
2018-03-21T19:46:28.297Z,4.88
2018-03-21T19:48:59.853Z,4.89
2018-03-21T19:51:29.648Z,4.85
2018-03-21T19:54:00.008Z,4.88
2018-03-21T19:56:29.446Z,4.99
2018-03-21T19:58:59.037Z,4.88
2018-03-21T20:01:29.756Z,4.87
2018-03-21T20:04:01.147Z,4.89
2018-03-21T20:06:30.269Z,4.86
2018-03-21T20:08:59.465Z,4.88
2018-03-21T20:11:28.498Z,4.85
2018-03-21T20:13:57.615Z,4.86
2018-03-21T20:16:26.848Z,4.77
2018-03-21T20:18:57.458Z,4.84
2018-03-21T20:21:26.635Z,4.78
2018-03-21T20:23:55.827Z,4.81
2018-03-21T20:26:25.583Z,4.81
2018-03-21T20:28:55.915Z,4.78
2018-03-21T20:31:26.047Z,4.75
2018-03-21T20:33:56.861Z,4.71
2018-03-21T20:36:26.261Z,4.73
2018-03-21T20:38:55.728Z,4.78
2018-03-21T20:41:26.084Z,4.73
2018-03-21T20:43:55.422Z,4.73
2018-03-21T20:46:25.488Z,4.68
2018-03-21T20:48:54.562Z,4.70
2018-03-21T20:51:24.277Z,4.64
2018-03-21T20:53:54.173Z,4.59
2018-03-21T20:56:23.632Z,4.47
2018-03-21T20:58:52.746Z,4.42
2018-03-21T21:01:23.278Z,4.44
2018-03-21T21:03:53.491Z,4.48
2018-03-21T21:06:22.767Z,4.48
2018-03-21T21:08:51.664Z,4.47
2018-03-21T21:11:21.229Z,4.48
2018-03-21T21:13:59.741Z,4.41
2018-03-21T21:16:28.586Z,4.42
2018-03-21T21:18:58.508Z,4.46
2018-03-21T21:21:28.685Z,4.43
2018-03-21T21:23:58.141Z,4.35
2018-03-21T21:26:27.033Z,4.33
2018-03-21T21:28:55.879Z,4.30
2018-03-21T21:31:24.714Z,4.38
2018-03-21T21:33:54.235Z,4.43
2018-03-21T21:36:23.081Z,4.43
2018-03-21T21:38:52.090Z,4.41
2018-03-21T21:41:21.218Z,4.38
2018-03-21T21:43:52.382Z,4.32
2018-03-21T21:46:21.235Z,4.39
2018-03-21T21:48:50.871Z,4.35
2018-03-21T21:51:19.862Z,4.32
2018-03-21T21:53:48.739Z,4.31
2018-03-21T21:56:17.443Z,4.34
2018-03-21T21:58:46.165Z,4.34
2018-03-21T22:01:15.255Z,4.47
2018-03-21T22:03:44.227Z,4.41
2018-03-21T22:06:13.817Z,4.42
2018-03-21T22:08:42.554Z,4.45
2018-03-21T22:11:11.527Z,4.45
2018-03-21T22:13:41.329Z,4.40
2018-03-21T22:16:11.251Z,4.47
2018-03-21T22:18:39.907Z,4.54
2018-03-21T22:21:09.060Z,4.49
2018-03-21T22:23:37.751Z,4.48
2018-03-21T22:26:06.550Z,4.50
2018-03-21T22:28:35.700Z,4.55
2018-03-21T22:31:04.581Z,4.53
2018-03-21T22:33:33.626Z,4.52
2018-03-21T22:36:02.446Z,4.39
2018-03-21T22:38:31.119Z,4.40
2018-03-21T22:40:59.984Z,4.49
2018-03-21T22:43:29.703Z,4.52
2018-03-21T22:45:59.767Z,4.45
2018-03-21T22:48:28.654Z,4.44
2018-03-21T22:50:58.110Z,4.40
2018-03-21T22:53:26.854Z,4.30
2018-03-21T22:55:55.820Z,4.29
2018-03-21T22:58:24.589Z,4.26
2018-03-21T23:00:53.277Z,4.22
2018-03-21T23:03:21.973Z,4.21
2018-03-21T23:05:50.843Z,4.26
2018-03-21T23:08:20.430Z,4.25
2018-03-21T23:10:48.994Z,4.24
2018-03-21T23:13:17.817Z,4.30
2018-03-21T23:15:47.875Z,4.30
2018-03-21T23:18:17.223Z,4.33
2018-03-21T23:20:45.888Z,4.48
2018-03-21T23:23:14.499Z,4.42
2018-03-21T23:25:43.109Z,4.37
2018-03-21T23:28:11.781Z,4.34
2018-03-21T23:30:40.546Z,4.29
2018-03-21T23:33:09.211Z,4.27
2018-03-21T23:35:37.890Z,4.24
2018-03-21T23:38:07.229Z,4.27
2018-03-21T23:40:35.961Z,4.25
2018-03-21T23:43:04.621Z,4.20
2018-03-21T23:45:33.405Z,4.44
2018-03-21T23:48:02.327Z,4.58
2018-03-21T23:50:31.607Z,4.62
2018-03-21T23:53:00.663Z,4.62
2018-03-21T23:55:29.321Z,4.70
2018-03-21T23:57:57.930Z,4.68
